Time;durP1;ratioP1;P1;durP2;ratioP2;P2;SDS_P1;SDS_P2;PMS_P1;PMS_P2;Temp;Humidity;BMP_temperature;BMP_pressure;BME280_temperature;BME280_humidity;BME280_pressure;Samples;Min_cycle;Max_cycle;Signal;HPM_P1;HPM_P2
2023/04/07 00:02:11;;;;;;;2.10;1.40;;;11.10;37.70;;;;;;4992249;28;20264;-69
2023/04/07 00:04:37;;;;;;;1.93;1.10;;;11.00;36.90;;;;;;4992166;28;20178;-69
2023/04/07 00:07:02;;;;;;;2.43;1.47;;;10.80;38.10;;;;;;4993551;28;20174;-68
2023/04/07 00:09:28;;;;;;;2.00;1.30;;;10.80;37.30;;;;;;4993621;28;20181;-69
2023/04/07 00:11:55;;;;;;;2.00;1.20;;;10.50;38.50;;;;;;4993583;28;20181;-69
2023/04/07 00:14:20;;;;;;;2.10;1.30;;;10.40;37.70;;;;;;4991510;28;21835;-67
2023/04/07 00:16:46;;;;;;;2.00;1.20;;;10.20;37.20;;;;;;4993206;28;20457;-69
2023/04/07 00:19:11;;;;;;;2.00;1.20;;;10.20;39.00;;;;;;4993386;28;20181;-69
2023/04/07 00:21:37;;;;;;;2.10;1.20;;;9.80;40.30;;;;;;4993375;28;20205;-69
2023/04/07 00:24:03;;;;;;;1.90;1.17;;;10.30;37.20;;;;;;4990977;28;20177;-68
2023/04/07 00:26:31;;;;;;;2.00;1.20;;;10.20;37.50;;;;;;4992701;28;20202;-69
2023/04/07 00:28:57;;;;;;;2.10;1.20;;;10.30;37.90;;;;;;4993093;28;20182;-69
2023/04/07 00:31:23;;;;;;;2.40;1.60;;;10.00;38.30;;;;;;4993058;28;20417;-68
2023/04/07 00:33:49;;;;;;;2.00;1.27;;;10.30;38.30;;;;;;4992879;28;20424;-69
2023/04/07 00:36:14;;;;;;;1.87;1.10;;;10.40;36.90;;;;;;4990528;28;20292;-69
2023/04/07 00:38:40;;;;;;;2.00;1.20;;;10.70;36.90;;;;;;4992947;28;20698;-69
2023/04/07 00:41:06;;;;;;;2.13;1.33;;;10.40;37.60;;;;;;4992620;28;20185;-69
2023/04/07 00:43:31;;;;;;;1.80;1.07;;;10.50;37.60;;;;;;4992766;28;20537;-68
2023/04/07 00:45:57;;;;;;;2.23;1.43;;;10.70;36.10;;;;;;4990843;28;20236;-69
2023/04/07 00:48:23;;;;;;;2.07;1.40;;;10.50;37.80;;;;;;4991572;28;20224;-68
2023/04/07 00:50:49;;;;;;;2.10;1.30;;;10.50;37.20;;;;;;4992839;28;20424;-70
2023/04/07 00:53:15;;;;;;;2.00;1.30;;;10.40;37.40;;;;;;4992676;28;20581;-69
2023/04/07 00:55:41;;;;;;;2.00;1.20;;;10.60;36.20;;;;;;4991180;28;20263;-69
2023/04/07 00:58:06;;;;;;;2.00;1.20;;;10.60;36.70;;;;;;4991254;28;20436;-68
2023/04/07 01:00:37;;;;;;;2.00;1.20;;;10.40;36.10;;;;;;4992333;28;20186;-68
2023/04/07 01:03:12;;;;;;;2.10;1.27;;;10.30;35.70;;;;;;4991675;28;20645;-69
2023/04/07 01:05:54;;;;;;;2.00;1.20;;;10.60;35.90;;;;;;4992461;28;20479;-70
2023/04/07 01:08:28;;;;;;;1.93;1.17;;;10.20;36.80;;;;;;4987721;28;20437;-69
2023/04/07 01:11:07;;;;;;;1.90;1.20;;;10.30;36.60;;;;;;4991940;28;20405;-69
2023/04/07 01:13:52;;;;;;;3.00;1.90;;;10.30;36.10;;;;;;4991778;28;20458;-68
2023/04/07 01:16:27;;;;;;;2.00;1.30;;;10.30;36.80;;;;;;4992368;28;20456;-69
2023/04/07 01:18:57;;;;;;;1.93;1.10;;;10.20;37.30;;;;;;4990512;28;20868;-65
2023/04/07 01:21:27;;;;;;;2.00;1.20;;;10.40;36.40;;;;;;4991244;28;20421;-68
2023/04/07 01:24:19;;;;;;;2.00;1.20;;;10.00;36.90;;;;;;4991939;28;20416;-69
2023/04/07 01:26:46;;;;;;;2.00;1.20;;;10.20;36.70;;;;;;4962361;28;20856;-68
2023/04/07 01:29:46;;;;;;;1.97;1.20;;;9.70;39.20;;;;;;4984689;28;20436;-69
2023/04/07 01:32:14;;;;;;;2.00;1.20;;;9.80;39.60;;;;;;4906603;29;20947;-70
2023/04/07 01:34:40;;;;;;;2.22;1.55;;;10.10;37.20;;;;;;4912211;29;20424;-69
2023/04/07 01:37:07;;;;;;;1.93;1.17;;;10.10;37.00;;;;;;4912840;29;20244;-69
2023/04/07 01:39:33;;;;;;;1.87;1.10;;;10.20;37.40;;;;;;4912128;29;20441;-69
2023/04/07 01:42:01;;;;;;;1.90;1.10;;;10.50;36.90;;;;;;4906894;29;20485;-69
2023/04/07 01:44:27;;;;;;;2.00;1.20;;;10.40;35.80;;;;;;4899908;29;20441;-67
2023/04/07 01:46:55;;;;;;;1.90;1.20;;;10.60;36.00;;;;;;4907311;29;20456;-68
2023/04/07 01:49:22;;;;;;;2.87;1.93;;;10.50;36.30;;;;;;4893464;29;21168;-69
2023/04/07 01:51:49;;;;;;;2.00;1.20;;;10.70;35.20;;;;;;4911521;29;20444;-69
2023/04/07 01:54:16;;;;;;;1.90;1.10;;;10.50;36.10;;;;;;4912356;29;20431;-68
2023/04/07 01:56:43;;;;;;;2.00;1.20;;;10.40;35.80;;;;;;4912751;29;20468;-69
2023/04/07 01:59:09;;;;;;;2.37;1.63;;;10.90;35.00;;;;;;4912582;29;20904;-68
2023/04/07 02:01:35;;;;;;;1.90;1.13;;;11.10;33.40;;;;;;4894369;29;20485;-69
2023/04/07 02:04:26;;;;;;;2.00;1.30;;;10.90;34.40;;;;;;4912386;29;20859;-69
2023/04/07 02:06:58;;;;;;;1.90;1.20;;;11.00;33.60;;;;;;4894026;29;20264;-69
2023/04/07 02:09:28;;;;;;;2.00;1.33;;;10.80;34.20;;;;;;4962390;28;20422;-69
2023/04/07 02:11:56;;;;;;;2.00;1.30;;;10.60;35.50;;;;;;4980955;28;20919;-67
2023/04/07 02:14:23;;;;;;;2.20;1.53;;;10.70;33.80;;;;;;4992470;28;20502;-68
2023/04/07 02:16:49;;;;;;;2.50;1.60;;;11.40;32.80;;;;;;4995494;28;20457;-69
2023/04/07 02:19:15;;;;;;;2.20;1.40;;;11.60;32.70;;;;;;4995549;28;20428;-69
2023/04/07 02:21:42;;;;;;;2.10;1.37;;;11.90;32.70;;;;;;4993999;28;20408;-69
2023/04/07 02:24:10;;;;;;;2.20;1.40;;;11.80;30.90;;;;;;4992851;28;20260;-68
2023/04/07 02:26:35;;;;;;;2.67;1.40;;;11.80;32.30;;;;;;4994481;28;20451;-69
2023/04/07 02:29:05;;;;;;;1.97;1.20;;;12.00;31.80;;;;;;4995195;28;20428;-69
2023/04/07 02:31:30;;;;;;;2.23;1.37;;;12.00;32.60;;;;;;4996123;28;20177;-69
2023/04/07 02:33:56;;;;;;;2.57;1.60;;;12.00;32.10;;;;;;4993487;28;20429;-69
2023/04/07 02:36:22;;;;;;;2.53;1.60;;;12.10;32.80;;;;;;4995031;28;20207;-67
2023/04/07 02:38:47;;;;;;;2.00;1.30;;;11.90;32.30;;;;;;4995362;28;20708;-69
2023/04/07 02:41:13;;;;;;;2.30;1.40;;;11.90;34.10;;;;;;4995016;28;20246;-68
2023/04/07 02:43:39;;;;;;;1.97;1.10;;;11.80;33.20;;;;;;4994067;28;20170;-70
2023/04/07 02:46:04;;;;;;;1.90;1.20;;;12.10;32.10;;;;;;4994236;28;20198;-69
2023/04/07 02:48:30;;;;;;;1.93;1.20;;;12.10;32.20;;;;;;4995336;28;20182;-68
2023/04/07 02:50:56;;;;;;;2.00;1.30;;;12.20;31.70;;;;;;4994685;28;20193;-69
2023/04/07 02:53:21;;;;;;;1.90;1.17;;;12.30;31.90;;;;;;4995027;28;20181;-69
2023/04/07 02:55:47;;;;;;;2.40;1.53;;;12.50;30.30;;;;;;4992675;28;20561;-69
2023/04/07 02:58:12;;;;;;;1.90;1.30;;;12.50;29.70;;;;;;4994768;28;20174;-68
2023/04/07 03:00:38;;;;;;;1.80;1.07;;;12.70;29.70;;;;;;4994853;28;20178;-69
2023/04/07 03:03:03;;;;;;;2.20;1.57;;;12.70;30.10;;;;;;4994582;28;20182;-69
2023/04/07 03:05:29;;;;;;;7.53;2.53;;;12.60;30.00;;;;;;4992517;28;20217;-69
2023/04/07 03:07:55;;;;;;;2.10;1.40;;;12.60;30.00;;;;;;4992904;28;20179;-68
2023/04/07 03:10:20;;;;;;;1.90;1.10;;;12.90;29.70;;;;;;4995906;28;20166;-69
2023/04/07 03:12:46;;;;;;;2.00;1.30;;;12.60;30.00;;;;;;4994486;28;20228;-69
2023/04/07 03:15:11;;;;;;;1.87;1.10;;;12.60;29.70;;;;;;4993028;28;20259;-69
2023/04/07 03:17:37;;;;;;;1.90;1.20;;;12.70;29.90;;;;;;4993359;28;20213;-69
2023/04/07 03:20:03;;;;;;;1.90;1.13;;;13.10;30.00;;;;;;4994356;28;20593;-69
2023/04/07 03:22:28;;;;;;;2.00;1.30;;;12.60;31.30;;;;;;4994608;28;20166;-69
2023/04/07 03:24:54;;;;;;;1.93;1.20;;;12.30;32.80;;;;;;4993598;28;20440;-69
2023/04/07 03:27:20;;;;;;;2.00;1.30;;;12.20;32.90;;;;;;4991642;28;20181;-69
2023/04/07 03:29:45;;;;;;;1.90;1.20;;;12.20;32.80;;;;;;4994071;28;20174;-69
2023/04/07 03:32:11;;;;;;;2.30;1.50;;;12.20;32.40;;;;;;4994282;28;20619;-69
2023/04/07 03:34:37;;;;;;;1.80;1.10;;;12.70;31.30;;;;;;4993896;28;20186;-69
2023/04/07 03:37:02;;;;;;;2.20;1.40;;;12.60;31.40;;;;;;4992364;28;20284;-69
2023/04/07 03:39:28;;;;;;;1.93;1.20;;;12.50;30.40;;;;;;4993332;28;20206;-69
2023/04/07 03:41:55;;;;;;;1.87;1.20;;;12.50;30.50;;;;;;4993987;28;20652;-69
2023/04/07 03:44:20;;;;;;;2.20;1.47;;;12.50;30.60;;;;;;4993701;28;20228;-69
2023/04/07 03:46:47;;;;;;;2.13;1.37;;;12.50;31.70;;;;;;4994026;28;20428;-69
2023/04/07 03:49:13;;;;;;;1.90;1.20;;;12.40;31.50;;;;;;4992144;28;20650;-69
2023/04/07 03:51:38;;;;;;;2.00;1.27;;;12.70;31.70;;;;;;4993696;28;20413;-69
2023/04/07 03:54:04;;;;;;;2.20;1.50;;;12.50;31.10;;;;;;4993429;28;20417;-69
2023/04/07 03:56:30;;;;;;;2.73;1.57;;;12.40;30.60;;;;;;4993847;28;20206;-67
2023/04/07 03:58:56;;;;;;;2.10;1.33;;;12.60;30.70;;;;;;5002897;28;20537;-69
2023/04/07 04:01:22;;;;;;;1.90;1.20;;;12.50;31.10;;;;;;5009828;28;20438;-68
2023/04/07 04:03:48;;;;;;;2.30;1.53;;;12.50;30.30;;;;;;4993340;28;20409;-68
2023/04/07 04:06:14;;;;;;;1.97;1.20;;;12.40;31.10;;;;;;4997413;28;20224;-68
2023/04/07 04:08:39;;;;;;;1.87;1.10;;;12.40;30.30;;;;;;5001011;28;20420;-69
2023/04/07 04:11:05;;;;;;;1.80;1.10;;;12.30;32.50;;;;;;4992576;28;20557;-68
2023/04/07 04:13:31;;;;;;;2.10;1.40;;;12.20;33.70;;;;;;4992973;28;20178;-68
2023/04/07 04:15:56;;;;;;;1.97;1.17;;;12.30;32.50;;;;;;4993037;28;20290;-68
2023/04/07 04:18:22;;;;;;;1.80;1.10;;;12.30;32.30;;;;;;4993234;28;20641;-68
2023/04/07 04:20:48;;;;;;;1.90;1.10;;;12.30;32.20;;;;;;4990997;28;20352;-68
2023/04/07 04:23:14;;;;;;;2.10;1.30;;;12.30;32.60;;;;;;4992885;28;20205;-68
2023/04/07 04:25:40;;;;;;;1.90;1.10;;;12.10;33.40;;;;;;4992989;28;20206;-68
2023/04/07 04:28:05;;;;;;;1.90;1.20;;;12.20;33.70;;;;;;4992918;28;20409;-68
2023/04/07 04:30:31;;;;;;;1.90;1.20;;;12.10;33.20;;;;;;4992227;28;20212;-69
2023/04/07 04:32:57;;;;;;;1.90;1.20;;;12.20;33.80;;;;;;4992961;28;20182;-70
2023/04/07 04:35:23;;;;;;;1.97;1.20;;;12.00;34.60;;;;;;4993459;28;20202;-69
2023/04/07 04:37:48;;;;;;;2.10;1.30;;;11.80;34.00;;;;;;4994432;28;20170;-69
2023/04/07 04:40:14;;;;;;;6.53;1.97;;;12.10;33.00;;;;;;4992654;28;20177;-69
2023/04/07 04:42:40;;;;;;;2.30;1.43;;;12.10;32.90;;;;;;4991098;28;20169;-69
2023/04/07 04:45:06;;;;;;;2.00;1.30;;;12.10;32.50;;;;;;4992384;28;20444;-70
2023/04/07 04:47:32;;;;;;;2.10;1.30;;;12.20;32.60;;;;;;4992180;28;20182;-69
2023/04/07 04:49:57;;;;;;;1.93;1.17;;;12.30;33.00;;;;;;4992173;28;20951;-68
2023/04/07 04:52:23;;;;;;;2.07;1.40;;;12.10;34.20;;;;;;4991194;28;20186;-66
2023/04/07 04:54:49;;;;;;;2.53;1.70;;;12.30;34.50;;;;;;4991922;28;20206;-69
2023/04/07 04:57:15;;;;;;;1.90;1.10;;;12.00;34.20;;;;;;4992314;28;20216;-69
2023/04/07 04:59:41;;;;;;;1.90;1.10;;;11.90;34.00;;;;;;4992755;28;20971;-69
2023/04/07 05:02:07;;;;;;;2.00;1.20;;;11.80;34.10;;;;;;4996697;28;20177;-69
2023/04/07 05:04:32;;;;;;;3.10;1.60;;;11.90;34.10;;;;;;4996992;28;20440;-69
2023/04/07 05:06:58;;;;;;;2.10;1.40;;;12.10;34.80;;;;;;4997049;28;20439;-69
2023/04/07 05:09:24;;;;;;;2.00;1.17;;;12.10;33.50;;;;;;5003795;28;20177;-69
2023/04/07 05:11:49;;;;;;;2.30;1.40;;;12.00;34.20;;;;;;5010662;28;20261;-70
2023/04/07 05:14:15;;;;;;;2.10;1.30;;;11.60;33.80;;;;;;4989518;28;20567;-70
2023/04/07 05:16:40;;;;;;;2.20;1.40;;;11.20;35.70;;;;;;4983903;28;20224;-70
2023/04/07 05:19:06;;;;;;;2.00;1.20;;;11.30;35.50;;;;;;4992517;28;20650;-70
2023/04/07 05:21:32;;;;;;;2.10;1.20;;;11.50;35.60;;;;;;4992075;28;20177;-70
2023/04/07 05:23:57;;;;;;;2.00;1.20;;;11.80;35.20;;;;;;4990770;28;20192;-70
2023/04/07 05:26:23;;;;;;;5.50;1.97;;;11.70;34.70;;;;;;4991481;28;20209;-70
2023/04/07 05:28:48;;;;;;;2.10;1.30;;;11.80;35.60;;;;;;4992132;28;20272;-70
2023/04/07 05:31:14;;;;;;;2.00;1.30;;;12.30;35.50;;;;;;4990879;28;20229;-69
2023/04/07 05:33:40;;;;;;;2.10;1.30;;;12.00;36.20;;;;;;4992044;28;20184;-70
2023/04/07 05:36:06;;;;;;;1.90;1.20;;;12.00;34.20;;;;;;4989631;28;20672;-70
2023/04/07 05:38:31;;;;;;;2.43;1.20;;;12.50;34.70;;;;;;4991964;28;20347;-70
2023/04/07 05:40:57;;;;;;;2.00;1.20;;;12.20;34.30;;;;;;4991808;28;20532;-70
2023/04/07 05:43:23;;;;;;;2.60;1.53;;;12.50;34.70;;;;;;4991892;28;20636;-70
2023/04/07 05:45:48;;;;;;;1.90;1.10;;;12.30;34.50;;;;;;4989940;28;20739;-70
2023/04/07 05:48:14;;;;;;;2.00;1.20;;;12.10;34.30;;;;;;4991601;28;20320;-70
2023/04/07 05:50:39;;;;;;;1.90;1.17;;;12.10;34.30;;;;;;4996050;28;20174;-70
2023/04/07 05:53:05;;;;;;;1.90;1.17;;;12.20;34.40;;;;;;4995614;28;20263;-70
2023/04/07 05:55:31;;;;;;;2.17;1.40;;;12.30;34.30;;;;;;4995080;28;20241;-70
2023/04/07 05:57:57;;;;;;;2.00;1.30;;;12.40;33.60;;;;;;4994984;28;20520;-70
2023/04/07 06:00:22;;;;;;;1.90;1.20;;;12.10;34.30;;;;;;4995532;28;20236;-70
2023/04/07 06:02:48;;;;;;;1.90;1.30;;;11.90;34.10;;;;;;4993318;28;20174;-70
2023/04/07 06:05:13;;;;;;;2.20;1.53;;;11.90;34.50;;;;;;4995487;28;20216;-70
2023/04/07 06:07:39;;;;;;;2.00;1.30;;;11.70;34.70;;;;;;4993185;28;20523;-69
2023/04/07 06:10:05;;;;;;;2.90;1.83;;;11.10;36.40;;;;;;4994497;28;20182;-70
2023/04/07 06:12:31;;;;;;;2.03;1.40;;;11.20;37.70;;;;;;4999146;28;20189;-70
2023/04/07 06:14:57;;;;;;;2.00;1.30;;;11.50;35.50;;;;;;5011959;28;20443;-70
2023/04/07 06:17:23;;;;;;;1.90;1.20;;;11.20;36.00;;;;;;5006348;28;20199;-70
2023/04/07 06:19:48;;;;;;;2.10;1.30;;;11.50;35.80;;;;;;4994558;28;20221;-70
2023/04/07 06:22:14;;;;;;;1.90;1.20;;;11.90;34.10;;;;;;4995327;28;20424;-70
2023/04/07 06:24:39;;;;;;;2.50;1.70;;;12.30;33.00;;;;;;4994893;28;20202;-70
2023/04/07 06:27:05;;;;;;;1.90;1.20;;;12.40;33.20;;;;;;4995232;28;20712;-70
2023/04/07 06:29:34;;;;;;;2.20;1.40;;;12.60;32.70;;;;;;4993537;28;20185;-70
2023/04/07 06:32:00;;;;;;;2.40;1.33;;;12.80;32.50;;;;;;4994978;28;20221;-69
2023/04/07 06:34:26;;;;;;;1.90;1.20;;;12.80;33.70;;;;;;4994752;28;20448;-69
2023/04/07 06:36:51;;;;;;;1.80;1.10;;;12.80;34.30;;;;;;4994648;28;20484;-69
2023/04/07 06:39:17;;;;;;;1.80;1.20;;;12.50;34.00;;;;;;4992999;28;20205;-70
2023/04/07 06:41:42;;;;;;;2.00;1.30;;;12.60;33.70;;;;;;4995375;28;20174;-70
2023/04/07 06:44:11;;;;;;;2.10;1.40;;;13.00;32.80;;;;;;4994655;28;20717;-70
2023/04/07 06:46:37;;;;;;;2.00;1.30;;;12.90;31.50;;;;;;4993459;28;20202;-70
2023/04/07 06:49:03;;;;;;;3.70;2.40;;;13.20;32.80;;;;;;4992852;28;20482;-70
2023/04/07 06:51:29;;;;;;;2.00;1.27;;;13.20;31.80;;;;;;4994064;28;20198;-70
2023/04/07 06:53:55;;;;;;;1.80;1.20;;;13.30;30.80;;;;;;4994486;28;20217;-70
2023/04/07 06:56:22;;;;;;;1.90;1.23;;;13.50;30.50;;;;;;4994296;28;20495;-69
2023/04/07 06:58:47;;;;;;;2.57;1.40;;;13.80;29.70;;;;;;4993022;28;20560;-70
2023/04/07 07:01:13;;;;;;;2.63;1.53;;;13.70;30.00;;;;;;4992007;28;20658;-70
2023/04/07 07:03:39;;;;;;;2.20;1.57;;;13.90;29.30;;;;;;4994093;28;20669;-70
2023/04/07 07:06:04;;;;;;;2.00;1.40;;;14.00;29.00;;;;;;4994284;28;20218;-70
2023/04/07 07:08:31;;;;;;;3.00;1.40;;;14.10;29.50;;;;;;4974873;28;20180;-70
2023/04/07 07:10:56;;;;;;;1.90;1.17;;;13.90;30.80;;;;;;4982446;28;20432;-68
2023/04/07 07:13:24;;;;;;;1.80;1.20;;;13.30;31.00;;;;;;4992690;28;20436;-70
2023/04/07 07:15:50;;;;;;;2.10;1.50;;;12.80;31.00;;;;;;5000928;28;20302;-70
2023/04/07 07:18:17;;;;;;;2.10;1.40;;;12.20;32.30;;;;;;4999885;28;20524;-67
2023/04/07 07:20:42;;;;;;;3.37;2.10;;;12.20;33.10;;;;;;4999090;28;20433;-70
2023/04/07 07:23:08;;;;;;;1.90;1.30;;;12.20;32.60;;;;;;5002762;28;20434;-70
2023/04/07 07:25:34;;;;;;;2.10;1.50;;;12.90;33.30;;;;;;4998922;28;20589;-70
2023/04/07 07:27:59;;;;;;;1.90;1.30;;;13.20;31.60;;;;;;4999485;28;20544;-70
2023/04/07 07:30:25;;;;;;;2.00;1.40;;;13.30;30.60;;;;;;4979351;28;20226;-69
2023/04/07 07:32:52;;;;;;;2.03;1.33;;;12.90;33.10;;;;;;4990944;28;20244;-70
2023/04/07 07:35:19;;;;;;;1.90;1.33;;;12.90;31.60;;;;;;4993936;28;20278;-70
2023/04/07 07:37:44;;;;;;;2.10;1.40;;;13.20;30.80;;;;;;4991943;28;20475;-70
2023/04/07 07:40:10;;;;;;;2.07;1.50;;;13.60;30.00;;;;;;4993935;28;20909;-70
2023/04/07 07:42:36;;;;;;;2.20;1.50;;;13.80;29.90;;;;;;4992076;28;20238;-70
2023/04/07 07:45:02;;;;;;;1.80;1.17;;;13.70;30.60;;;;;;4992863;28;20210;-70
2023/04/07 07:47:28;;;;;;;2.47;1.70;;;14.10;30.30;;;;;;4993780;28;20513;-70
2023/04/07 07:49:54;;;;;;;2.17;1.57;;;14.60;28.40;;;;;;4993022;28;20443;-69
2023/04/07 07:52:20;;;;;;;1.80;1.20;;;13.90;29.20;;;;;;4992320;28;20528;-70
2023/04/07 07:54:47;;;;;;;1.90;1.20;;;13.50;30.50;;;;;;4998538;28;20693;-70
2023/04/07 07:57:12;;;;;;;1.80;1.10;;;13.70;30.50;;;;;;5009488;28;21063;-74
2023/04/07 07:59:40;;;;;;;3.50;1.93;;;13.80;30.40;;;;;;5005793;28;20426;-67
2023/04/07 08:02:06;;;;;;;6.43;1.80;;;13.80;30.00;;;;;;4992885;28;20186;-69
2023/04/07 08:04:31;;;;;;;2.30;1.70;;;14.20;30.00;;;;;;4993117;28;20888;-69
2023/04/07 08:06:57;;;;;;;3.63;1.70;;;14.60;28.40;;;;;;4993114;28;20520;-76
2023/04/07 08:09:24;;;;;;;2.40;1.63;;;15.10;28.10;;;;;;4990043;28;20221;-76
2023/04/07 08:11:50;;;;;;;2.97;1.50;;;15.20;27.90;;;;;;4994076;28;20913;-76
2023/04/07 08:14:16;;;;;;;2.60;1.60;;;15.40;26.90;;;;;;4991021;28;20213;-75
2023/04/07 08:16:41;;;;;;;1.93;1.23;;;15.70;27.40;;;;;;4995833;28;20469;-73
2023/04/07 08:19:07;;;;;;;2.30;1.40;;;15.80;25.30;;;;;;4994867;28;20437;-70
2023/04/07 08:21:32;;;;;;;2.20;1.33;;;15.50;25.40;;;;;;4993376;28;20180;-69
2023/04/07 08:23:59;;;;;;;2.23;1.33;;;15.50;25.30;;;;;;4991559;28;20183;-69
2023/04/07 08:26:25;;;;;;;2.43;1.63;;;15.20;25.90;;;;;;4999486;28;20214;-69
2023/04/07 08:28:51;;;;;;;2.50;1.60;;;15.10;25.80;;;;;;4986822;28;20438;-70
2023/04/07 08:31:17;;;;;;;2.10;1.23;;;15.10;26.50;;;;;;4991507;28;20660;-70
2023/04/07 08:33:43;;;;;;;4.20;1.80;;;14.20;26.80;;;;;;4992298;28;20431;-68
2023/04/07 08:36:09;;;;;;;2.20;1.40;;;13.90;28.30;;;;;;4992220;28;20465;-68
2023/04/07 08:38:34;;;;;;;2.10;1.23;;;14.40;27.40;;;;;;4991856;28;20541;-68
2023/04/07 08:41:05;;;;;;;2.30;1.37;;;14.60;27.00;;;;;;4990855;28;20179;-68
2023/04/07 08:43:32;;;;;;;2.40;1.50;;;14.90;27.10;;;;;;4992558;28;20514;-67
2023/04/07 08:45:58;;;;;;;2.13;1.27;;;14.40;26.80;;;;;;4991115;28;20518;-69
2023/04/07 08:48:26;;;;;;;2.30;1.60;;;14.80;27.30;;;;;;4993359;28;20425;-71
2023/04/07 08:50:52;;;;;;;2.00;1.20;;;15.20;25.20;;;;;;4992182;28;20417;-67
2023/04/07 08:53:26;;;;;;;2.70;1.47;;;15.80;24.60;;;;;;4989710;28;20452;-70
2023/04/07 08:55:54;;;;;;;2.20;1.40;;;16.00;26.10;;;;;;5000430;28;20502;-70
2023/04/07 08:58:20;;;;;;;2.00;1.20;;;16.40;24.40;;;;;;4986843;28;20517;-70
2023/04/07 09:00:48;;;;;;;2.20;1.40;;;16.50;23.60;;;;;;5003598;28;20456;-69
2023/04/07 09:03:15;;;;;;;4.10;1.50;;;16.00;24.40;;;;;;5008246;28;20428;-70
2023/04/07 09:05:44;;;;;;;2.20;1.40;;;15.00;25.90;;;;;;5002389;28;20554;-71
2023/04/07 09:08:09;;;;;;;2.20;1.40;;;15.50;25.90;;;;;;4995222;28;20435;-70
2023/04/07 09:10:36;;;;;;;1.93;1.23;;;15.00;26.10;;;;;;4993015;28;20472;-70
2023/04/07 09:13:01;;;;;;;2.23;1.47;;;15.00;26.90;;;;;;4996632;28;20187;-70
2023/04/07 09:15:31;;;;;;;2.00;1.30;;;15.40;27.00;;;;;;4998120;28;20456;-70
2023/04/07 09:17:57;;;;;;;2.27;1.50;;;16.00;25.20;;;;;;4995249;28;20185;-70
2023/04/07 09:20:24;;;;;;;2.00;1.23;;;16.20;24.30;;;;;;4991867;28;20446;-70
2023/04/07 09:22:50;;;;;;;2.07;1.30;;;16.50;25.10;;;;;;5008935;28;20428;-70
2023/04/07 09:25:22;;;;;;;2.00;1.23;;;16.50;25.20;;;;;;4993343;28;20452;-70
2023/04/07 09:28:02;;;;;;;1.90;1.10;;;16.50;25.40;;;;;;4992645;28;20385;-70
2023/04/07 09:30:29;;;;;;;2.00;1.20;;;15.40;25.10;;;;;;4992378;28;20407;-66
2023/04/07 09:32:56;;;;;;;2.00;1.20;;;14.40;26.30;;;;;;4990372;28;20477;-68
2023/04/07 09:35:23;;;;;;;2.10;1.30;;;14.50;27.60;;;;;;5004739;28;20469;-68
2023/04/07 09:38:06;;;;;;;1.90;1.10;;;15.30;27.40;;;;;;4999283;28;20995;-68
2023/04/07 09:40:33;;;;;;;1.90;1.20;;;15.90;25.80;;;;;;4993521;28;20498;-68
2023/04/07 09:42:59;;;;;;;2.40;1.40;;;15.80;25.50;;;;;;5000042;28;20428;-67
2023/04/07 09:45:30;;;;;;;2.00;1.27;;;15.60;26.50;;;;;;4994988;28;20456;-67
2023/04/07 09:47:56;;;;;;;2.00;1.30;;;16.40;23.90;;;;;;5000258;28;20934;-69
2023/04/07 09:50:34;;;;;;;2.07;1.30;;;17.00;23.90;;;;;;4994991;28;20418;-69
2023/04/07 09:53:00;;;;;;;1.80;1.10;;;16.90;23.80;;;;;;4992678;28;20160;-68
2023/04/07 09:55:27;;;;;;;2.10;1.37;;;17.10;24.50;;;;;;4992966;28;20447;-68
2023/04/07 09:57:57;;;;;;;2.30;1.40;;;17.40;23.20;;;;;;4992115;28;20607;-67
2023/04/07 10:00:23;;;;;;;2.47;1.30;;;17.60;24.30;;;;;;4992144;28;20425;-68
2023/04/07 10:02:50;;;;;;;2.10;1.30;;;17.70;22.60;;;;;;4992439;28;20429;-68
2023/04/07 10:05:16;;;;;;;2.30;1.40;;;17.70;24.40;;;;;;4992223;28;20488;-67
2023/04/07 10:07:42;;;;;;;2.97;1.60;;;17.90;21.80;;;;;;4992743;28;20451;-69
2023/04/07 10:10:08;;;;;;;2.70;1.70;;;18.10;22.30;;;;;;5007659;28;20418;-69
2023/04/07 10:12:38;;;;;;;2.47;1.37;;;18.30;23.40;;;;;;4992534;28;20783;-66
2023/04/07 10:15:04;;;;;;;2.30;1.40;;;18.10;23.10;;;;;;5001698;28;20458;-69
2023/04/07 10:17:35;;;;;;;2.20;1.37;;;18.20;22.30;;;;;;5001206;28;20464;-69
2023/04/07 10:20:03;;;;;;;2.53;1.40;;;18.50;20.60;;;;;;4985379;28;20435;-69
2023/04/07 10:22:30;;;;;;;2.10;1.20;;;19.20;21.90;;;;;;5008783;28;20431;-69
2023/04/07 10:24:57;;;;;;;2.20;1.23;;;19.60;19.70;;;;;;5011342;28;21021;-69
2023/04/07 10:27:31;;;;;;;2.30;1.30;;;19.60;21.90;;;;;;5011573;28;20412;-70
2023/04/07 10:29:57;;;;;;;7.20;1.60;;;19.40;20.50;;;;;;4996796;28;20437;-68
2023/04/07 10:32:23;;;;;;;2.50;1.47;;;19.60;20.20;;;;;;5000746;28;20936;-69
2023/04/07 10:34:56;;;;;;;2.53;1.40;;;20.00;20.90;;;;;;4991500;28;20492;-69
2023/04/07 10:37:23;;;;;;;2.60;1.30;;;19.80;19.10;;;;;;5004040;28;20663;-67
2023/04/07 10:39:51;;;;;;;2.53;1.30;;;20.00;19.80;;;;;;5008934;28;20437;-69
2023/04/07 10:42:38;;;;;;;2.60;1.37;;;19.70;19.40;;;;;;5001189;28;20432;-67
2023/04/07 10:45:05;;;;;;;2.60;1.37;;;19.20;19.20;;;;;;5002544;28;20509;-68
2023/04/07 10:47:31;;;;;;;2.90;1.60;;;18.20;19.90;;;;;;5008479;28;20442;-72
2023/04/07 10:50:15;;;;;;;4.20;2.17;;;17.90;21.30;;;;;;5000775;28;20796;-65
2023/04/07 10:52:41;;;;;;;2.70;1.40;;;18.70;19.60;;;;;;4992480;28;20527;-69
2023/04/07 10:55:33;;;;;;;2.63;1.30;;;18.00;20.10;;;;;;4995081;28;20527;-69
2023/04/07 10:58:22;;;;;;;2.70;1.30;;;17.70;20.60;;;;;;5000188;28;20590;-69
2023/04/07 11:01:00;;;;;;;2.80;1.40;;;19.20;19.70;;;;;;4975634;28;20444;-70
2023/04/07 11:03:27;;;;;;;2.67;1.30;;;19.90;18.60;;;;;;4990135;28;20485;-70
2023/04/07 11:06:07;;;;;;;3.00;1.50;;;20.10;17.70;;;;;;5006988;28;20479;-67
2023/04/07 11:08:33;;;;;;;2.77;1.20;;;20.10;18.70;;;;;;4996314;28;20467;-70
2023/04/07 11:10:58;;;;;;;3.00;1.30;;;18.50;19.80;;;;;;4994654;28;20415;-69
2023/04/07 11:13:24;;;;;;;2.90;1.30;;;18.40;20.30;;;;;;4992428;28;20858;-70
2023/04/07 11:15:51;;;;;;;3.20;1.40;;;18.20;21.00;;;;;;4998063;28;20671;-70
2023/04/07 11:18:22;;;;;;;2.90;1.30;;;19.00;19.60;;;;;;5006074;28;20524;-70
2023/04/07 11:20:58;;;;;;;2.80;1.23;;;18.30;20.40;;;;;;4994302;28;20492;-66
2023/04/07 11:23:26;;;;;;;3.00;1.40;;;18.60;19.70;;;;;;4987344;28;20462;-69
2023/04/07 11:26:02;;;;;;;2.80;1.20;;;18.70;20.50;;;;;;4997638;28;20912;-66
2023/04/07 11:28:28;;;;;;;2.80;1.20;;;19.10;19.50;;;;;;4990432;28;20435;-68
2023/04/07 11:30:55;;;;;;;3.00;1.40;;;19.30;19.10;;;;;;4994600;28;20903;-70
2023/04/07 11:33:23;;;;;;;3.00;1.30;;;19.30;19.00;;;;;;4992182;28;20442;-69
2023/04/07 11:35:54;;;;;;;2.80;1.20;;;19.30;19.40;;;;;;4991604;28;20550;-70
2023/04/07 11:38:26;;;;;;;2.90;1.30;;;19.50;18.50;;;;;;4990688;28;20487;-68
2023/04/07 11:40:52;;;;;;;3.00;1.40;;;19.30;18.70;;;;;;4991076;28;20834;-69
2023/04/07 11:43:20;;;;;;;3.00;1.30;;;19.30;18.70;;;;;;4991160;28;20458;-68
2023/04/07 11:46:02;;;;;;;2.87;1.30;;;19.20;19.60;;;;;;4983264;28;20450;-68
2023/04/07 11:48:30;;;;;;;2.70;1.20;;;19.50;18.80;;;;;;5002529;28;20432;-70
2023/04/07 11:50:55;;;;;;;2.80;1.30;;;18.70;18.70;;;;;;4996148;28;21023;-70
2023/04/07 11:53:38;;;;;;;2.70;1.30;;;17.20;21.20;;;;;;4989390;28;20524;-72
2023/04/07 11:56:15;;;;;;;2.40;1.30;;;15.90;23.00;;;;;;4989499;28;20215;-70
2023/04/07 11:58:52;;;;;;;2.37;1.30;;;14.70;26.10;;;;;;4995229;28;20439;-69
2023/04/07 12:01:19;;;;;;;2.13;1.20;;;14.40;27.10;;;;;;5001702;28;20828;-70
2023/04/07 12:03:56;;;;;;;2.20;1.20;;;14.70;26.00;;;;;;4992142;28;20495;-69
2023/04/07 12:06:37;;;;;;;2.10;1.27;;;14.70;26.20;;;;;;4991668;28;20476;-71
2023/04/07 12:09:04;;;;;;;2.10;1.23;;;14.40;26.60;;;;;;4995354;28;20455;-72
2023/04/07 12:11:31;;;;;;;2.17;1.30;;;14.30;26.80;;;;;;4999231;28;20428;-71
2023/04/07 12:13:57;;;;;;;2.10;1.30;;;14.70;27.00;;;;;;4992994;28;20440;-69
2023/04/07 12:16:23;;;;;;;2.20;1.37;;;15.20;24.90;;;;;;4996266;28;20474;-70
2023/04/07 12:18:50;;;;;;;1.97;1.10;;;14.50;25.20;;;;;;4990378;28;20525;-69
2023/04/07 12:21:16;;;;;;;2.10;1.30;;;14.50;25.90;;;;;;4992624;28;20432;-69
2023/04/07 12:23:42;;;;;;;2.10;1.30;;;14.70;25.50;;;;;;4990611;28;20433;-69
2023/04/07 12:26:09;;;;;;;3.20;1.43;;;14.30;26.20;;;;;;4988036;28;20513;-68
2023/04/07 12:28:36;;;;;;;2.10;1.30;;;14.00;27.40;;;;;;5000775;28;20186;-66
2023/04/07 12:31:03;;;;;;;2.00;1.30;;;13.80;27.80;;;;;;4991491;28;20483;-69
2023/04/07 12:33:29;;;;;;;1.93;1.30;;;13.80;28.20;;;;;;4990090;28;20433;-66
2023/04/07 12:35:55;;;;;;;1.90;1.20;;;13.90;28.20;;;;;;4995763;28;20958;-69
2023/04/07 12:38:21;;;;;;;1.97;1.23;;;14.10;28.10;;;;;;4998877;28;20435;-69
2023/04/07 12:40:47;;;;;;;2.13;1.50;;;14.30;27.90;;;;;;5002650;28;21150;-70
2023/04/07 12:43:12;;;;;;;1.93;1.20;;;14.10;27.30;;;;;;5007826;28;20166;-69
2023/04/07 12:45:38;;;;;;;2.00;1.30;;;13.80;27.90;;;;;;4993114;28;20241;-69
2023/04/07 12:48:04;;;;;;;2.10;1.30;;;13.70;28.10;;;;;;4991221;28;20181;-67
2023/04/07 12:50:30;;;;;;;2.10;1.30;;;13.60;28.40;;;;;;4992398;28;20189;-68